sensor_id;sensor_type;location;lat;lon;timestamp;P1;durP1;ratioP1;P2;durP2;ratioP2
22113;SDS011;11223;49.968;9.062;2023-05-08T00:00:27;6.13;;;5.63;;
22113;SDS011;11223;49.968;9.062;2023-05-08T00:02:52;6.10;;;5.67;;
22113;SDS011;11223;49.968;9.062;2023-05-08T00:05:18;6.10;;;5.70;;
22113;SDS011;11223;49.968;9.062;2023-05-08T00:07:43;6.43;;;5.83;;
22113;SDS011;11223;49.968;9.062;2023-05-08T00:10:09;5.77;;;5.27;;
22113;SDS011;11223;49.968;9.062;2023-05-08T00:12:35;5.47;;;5.05;;
22113;SDS011;11223;49.968;9.062;2023-05-08T00:15:01;6.20;;;5.70;;
22113;SDS011;11223;49.968;9.062;2023-05-08T00:17:28;7.03;;;6.32;;
22113;SDS011;11223;49.968;9.062;2023-05-08T00:19:54;5.70;;;5.30;;
22113;SDS011;11223;49.968;9.062;2023-05-08T00:22:19;5.87;;;5.37;;
22113;SDS011;11223;49.968;9.062;2023-05-08T00:24:45;6.00;;;5.50;;
22113;SDS011;11223;49.968;9.062;2023-05-08T00:27:11;7.53;;;6.00;;
22113;SDS011;11223;49.968;9.062;2023-05-08T00:29:36;6.80;;;6.30;;
22113;SDS011;11223;49.968;9.062;2023-05-08T00:32:04;5.65;;;5.25;;
22113;SDS011;11223;49.968;9.062;2023-05-08T00:34:30;5.55;;;5.15;;
22113;SDS011;11223;49.968;9.062;2023-05-08T00:36:56;4.93;;;4.50;;
22113;SDS011;11223;49.968;9.062;2023-05-08T00:39:21;6.43;;;5.83;;
22113;SDS011;11223;49.968;9.062;2023-05-08T00:41:47;4.87;;;4.47;;
22113;SDS011;11223;49.968;9.062;2023-05-08T00:44:12;5.60;;;5.10;;
22113;SDS011;11223;49.968;9.062;2023-05-08T00:46:38;5.10;;;4.70;;
22113;SDS011;11223;49.968;9.062;2023-05-08T00:49:05;5.97;;;5.35;;
22113;SDS011;11223;49.968;9.062;2023-05-08T00:51:34;4.90;;;4.50;;
22113;SDS011;11223;49.968;9.062;2023-05-08T00:54:00;6.10;;;5.50;;
22113;SDS011;11223;49.968;9.062;2023-05-08T00:56:25;5.23;;;4.73;;
22113;SDS011;11223;49.968;9.062;2023-05-08T00:58:53;6.10;;;5.53;;
22113;SDS011;11223;49.968;9.062;2023-05-08T01:01:19;5.53;;;5.10;;
22113;SDS011;11223;49.968;9.062;2023-05-08T01:03:45;5.00;;;4.60;;
22113;SDS011;11223;49.968;9.062;2023-05-08T01:06:11;5.68;;;5.18;;
22113;SDS011;11223;49.968;9.062;2023-05-08T01:08:37;8.17;;;5.63;;
22113;SDS011;11223;49.968;9.062;2023-05-08T01:13:48;5.72;;;5.32;;
22113;SDS011;11223;49.968;9.062;2023-05-08T01:16:28;5.65;;;5.18;;
22113;SDS011;11223;49.968;9.062;2023-05-08T01:21:55;5.95;;;5.47;;
22113;SDS011;11223;49.968;9.062;2023-05-08T01:33:13;7.40;;;6.70;;
22113;SDS011;11223;49.968;9.062;2023-05-08T01:35:50;7.55;;;6.85;;
22113;SDS011;11223;49.968;9.062;2023-05-08T01:38:31;7.20;;;6.60;;
22113;SDS011;11223;49.968;9.062;2023-05-08T01:41:15;7.07;;;6.05;;
22113;SDS011;11223;49.968;9.062;2023-05-08T01:43:52;5.53;;;5.13;;
22113;SDS011;11223;49.968;9.062;2023-05-08T01:46:29;6.38;;;5.45;;
22113;SDS011;11223;49.968;9.062;2023-05-08T01:49:04;6.38;;;5.88;;
22113;SDS011;11223;49.968;9.062;2023-05-08T01:51:38;7.15;;;6.55;;
22113;SDS011;11223;49.968;9.062;2023-05-08T01:54:11;6.57;;;6.07;;
22113;SDS011;11223;49.968;9.062;2023-05-08T01:56:41;7.40;;;6.80;;
22113;SDS011;11223;49.968;9.062;2023-05-08T01:59:11;7.07;;;6.38;;
22113;SDS011;11223;49.968;9.062;2023-05-08T02:01:39;8.02;;;7.32;;
22113;SDS011;11223;49.968;9.062;2023-05-08T02:04:06;7.03;;;6.43;;
22113;SDS011;11223;49.968;9.062;2023-05-08T02:06:33;7.28;;;6.68;;
22113;SDS011;11223;49.968;9.062;2023-05-08T02:09:01;7.30;;;6.75;;
22113;SDS011;11223;49.968;9.062;2023-05-08T02:11:27;7.40;;;6.73;;
22113;SDS011;11223;49.968;9.062;2023-05-08T02:13:55;6.80;;;6.20;;
22113;SDS011;11223;49.968;9.062;2023-05-08T02:16:25;6.30;;;5.80;;
22113;SDS011;11223;49.968;9.062;2023-05-08T02:18:52;6.85;;;6.25;;
22113;SDS011;11223;49.968;9.062;2023-05-08T02:21:20;6.93;;;6.43;;
22113;SDS011;11223;49.968;9.062;2023-05-08T02:23:47;7.40;;;5.97;;
22113;SDS011;11223;49.968;9.062;2023-05-08T02:26:14;7.50;;;7.00;;
22113;SDS011;11223;49.968;9.062;2023-05-08T02:28:41;7.03;;;6.53;;
22113;SDS011;11223;49.968;9.062;2023-05-08T02:31:10;6.22;;;5.72;;
22113;SDS011;11223;49.968;9.062;2023-05-08T02:33:37;7.45;;;6.85;;
22113;SDS011;11223;49.968;9.062;2023-05-08T02:36:06;11.80;;;7.43;;
22113;SDS011;11223;49.968;9.062;2023-05-08T02:38:32;6.90;;;6.30;;
22113;SDS011;11223;49.968;9.062;2023-05-08T02:41:01;7.18;;;6.57;;
22113;SDS011;11223;49.968;9.062;2023-05-08T02:43:29;7.50;;;6.93;;
22113;SDS011;11223;49.968;9.062;2023-05-08T02:45:58;6.80;;;6.30;;
22113;SDS011;11223;49.968;9.062;2023-05-08T02:51:52;7.68;;;7.07;;
22113;SDS011;11223;49.968;9.062;2023-05-08T02:54:23;8.57;;;7.88;;
22113;SDS011;11223;49.968;9.062;2023-05-08T02:56:57;9.43;;;8.63;;
22113;SDS011;11223;49.968;9.062;2023-05-08T02:59:28;9.30;;;8.50;;
22113;SDS011;11223;49.968;9.062;2023-05-08T03:02:05;8.02;;;7.43;;
22113;SDS011;11223;49.968;9.062;2023-05-08T03:04:42;9.25;;;8.55;;
22113;SDS011;11223;49.968;9.062;2023-05-08T03:07:14;9.50;;;8.70;;
22113;SDS011;11223;49.968;9.062;2023-05-08T03:09:41;10.50;;;9.05;;
22113;SDS011;11223;49.968;9.062;2023-05-08T03:12:11;9.55;;;8.75;;
22113;SDS011;11223;49.968;9.062;2023-05-08T03:14:44;9.48;;;8.77;;
22113;SDS011;11223;49.968;9.062;2023-05-08T03:17:16;9.05;;;8.25;;
22113;SDS011;11223;49.968;9.062;2023-05-08T03:19:45;8.48;;;7.72;;
22113;SDS011;11223;49.968;9.062;2023-05-08T03:22:14;8.45;;;7.72;;
22113;SDS011;11223;49.968;9.062;2023-05-08T03:24:43;8.48;;;7.68;;
22113;SDS011;11223;49.968;9.062;2023-05-08T03:27:10;8.02;;;7.40;;
22113;SDS011;11223;49.968;9.062;2023-05-08T03:29:37;9.05;;;8.25;;
22113;SDS011;11223;49.968;9.062;2023-05-08T03:32:03;9.02;;;8.32;;
22113;SDS011;11223;49.968;9.062;2023-05-08T03:34:30;10.80;;;8.85;;
22113;SDS011;11223;49.968;9.062;2023-05-08T03:36:56;8.95;;;8.15;;
22113;SDS011;11223;49.968;9.062;2023-05-08T03:39:23;8.90;;;8.20;;
22113;SDS011;11223;49.968;9.062;2023-05-08T03:41:50;9.43;;;8.65;;
22113;SDS011;11223;49.968;9.062;2023-05-08T03:44:16;9.50;;;8.70;;
22113;SDS011;11223;49.968;9.062;2023-05-08T03:46:43;8.15;;;7.45;;
22113;SDS011;11223;49.968;9.062;2023-05-08T03:49:09;9.60;;;8.80;;
22113;SDS011;11223;49.968;9.062;2023-05-08T03:51:37;8.05;;;7.45;;
22113;SDS011;11223;49.968;9.062;2023-05-08T03:54:04;8.90;;;8.20;;
22113;SDS011;11223;49.968;9.062;2023-05-08T03:56:30;9.40;;;8.60;;
22113;SDS011;11223;49.968;9.062;2023-05-08T03:58:58;10.00;;;9.13;;
22113;SDS011;11223;49.968;9.062;2023-05-08T04:01:38;9.68;;;8.73;;
22113;SDS011;11223;49.968;9.062;2023-05-08T04:07:09;9.10;;;8.40;;
22113;SDS011;11223;49.968;9.062;2023-05-08T04:09:37;8.93;;;8.23;;
22113;SDS011;11223;49.968;9.062;2023-05-08T04:12:35;10.13;;;9.23;;
22113;SDS011;11223;49.968;9.062;2023-05-08T04:15:23;9.45;;;8.65;;
22113;SDS011;11223;49.968;9.062;2023-05-08T04:20:21;8.95;;;8.25;;
22113;SDS011;11223;49.968;9.062;2023-05-08T04:22:51;9.85;;;9.00;;
22113;SDS011;11223;49.968;9.062;2023-05-08T04:25:18;10.88;;;9.75;;
22113;SDS011;11223;49.968;9.062;2023-05-08T04:27:45;8.85;;;7.88;;
22113;SDS011;11223;49.968;9.062;2023-05-08T04:30:12;9.85;;;8.95;;
22113;SDS011;11223;49.968;9.062;2023-05-08T04:32:38;10.00;;;9.20;;
22113;SDS011;11223;49.968;9.062;2023-05-08T04:35:05;9.40;;;8.70;;
22113;SDS011;11223;49.968;9.062;2023-05-08T04:37:31;10.30;;;9.30;;
22113;SDS011;11223;49.968;9.062;2023-05-08T04:39:57;11.53;;;10.47;;
22113;SDS011;11223;49.968;9.062;2023-05-08T04:42:23;10.25;;;9.43;;
22113;SDS011;11223;49.968;9.062;2023-05-08T04:44:52;11.40;;;10.30;;
22113;SDS011;11223;49.968;9.062;2023-05-08T04:47:18;10.63;;;9.70;;
22113;SDS011;11223;49.968;9.062;2023-05-08T04:49:44;9.63;;;8.88;;
22113;SDS011;11223;49.968;9.062;2023-05-08T04:52:10;11.43;;;10.53;;
22113;SDS011;11223;49.968;9.062;2023-05-08T04:54:36;10.57;;;9.77;;
22113;SDS011;11223;49.968;9.062;2023-05-08T04:57:01;9.90;;;9.00;;
22113;SDS011;11223;49.968;9.062;2023-05-08T04:59:27;12.07;;;10.98;;
22113;SDS011;11223;49.968;9.062;2023-05-08T05:01:53;9.90;;;9.00;;
22113;SDS011;11223;49.968;9.062;2023-05-08T05:04:22;11.90;;;10.70;;
22113;SDS011;11223;49.968;9.062;2023-05-08T05:06:48;9.32;;;8.50;;
22113;SDS011;11223;49.968;9.062;2023-05-08T05:09:14;10.80;;;9.83;;
22113;SDS011;11223;49.968;9.062;2023-05-08T05:11:40;11.02;;;10.02;;
22113;SDS011;11223;49.968;9.062;2023-05-08T05:14:05;11.33;;;10.33;;
22113;SDS011;11223;49.968;9.062;2023-05-08T05:16:31;10.30;;;9.50;;
22113;SDS011;11223;49.968;9.062;2023-05-08T05:18:57;11.70;;;10.70;;
22113;SDS011;11223;49.968;9.062;2023-05-08T05:21:23;11.63;;;10.73;;
22113;SDS011;11223;49.968;9.062;2023-05-08T05:23:49;12.07;;;11.07;;
22113;SDS011;11223;49.968;9.062;2023-05-08T05:26:15;10.40;;;9.50;;
22113;SDS011;11223;49.968;9.062;2023-05-08T05:28:41;11.23;;;10.20;;
22113;SDS011;11223;49.968;9.062;2023-05-08T05:31:07;12.67;;;11.47;;
22113;SDS011;11223;49.968;9.062;2023-05-08T05:33:32;11.60;;;10.13;;
22113;SDS011;11223;49.968;9.062;2023-05-08T05:35:58;11.67;;;9.93;;
22113;SDS011;11223;49.968;9.062;2023-05-08T05:38:24;12.55;;;11.27;;
22113;SDS011;11223;49.968;9.062;2023-05-08T05:40:50;10.43;;;9.43;;
22113;SDS011;11223;49.968;9.062;2023-05-08T05:43:15;12.60;;;11.57;;
22113;SDS011;11223;49.968;9.062;2023-05-08T05:45:41;11.73;;;10.77;;
22113;SDS011;11223;49.968;9.062;2023-05-08T05:48:06;11.83;;;10.83;;
22113;SDS011;11223;49.968;9.062;2023-05-08T05:50:32;12.83;;;11.63;;
22113;SDS011;11223;49.968;9.062;2023-05-08T05:52:58;12.17;;;11.07;;
22113;SDS011;11223;49.968;9.062;2023-05-08T05:55:23;12.00;;;10.90;;
22113;SDS011;11223;49.968;9.062;2023-05-08T05:57:49;12.73;;;11.70;;
22113;SDS011;11223;49.968;9.062;2023-05-08T06:00:15;12.10;;;11.10;;
22113;SDS011;11223;49.968;9.062;2023-05-08T06:02:41;12.43;;;11.43;;
22113;SDS011;11223;49.968;9.062;2023-05-08T06:05:07;12.20;;;11.10;;
22113;SDS011;11223;49.968;9.062;2023-05-08T06:07:34;11.25;;;10.30;;
22113;SDS011;11223;49.968;9.062;2023-05-08T06:09:59;13.13;;;11.93;;
22113;SDS011;11223;49.968;9.062;2023-05-08T06:12:25;11.93;;;11.03;;
22113;SDS011;11223;49.968;9.062;2023-05-08T06:14:52;11.18;;;10.27;;
22113;SDS011;11223;49.968;9.062;2023-05-08T06:17:18;10.20;;;9.30;;
22113;SDS011;11223;49.968;9.062;2023-05-08T06:19:43;11.47;;;10.47;;
22113;SDS011;11223;49.968;9.062;2023-05-08T06:22:14;12.00;;;10.77;;
22113;SDS011;11223;49.968;9.062;2023-05-08T06:24:42;9.63;;;8.82;;
22113;SDS011;11223;49.968;9.062;2023-05-08T06:27:08;9.67;;;8.77;;
22113;SDS011;11223;49.968;9.062;2023-05-08T06:29:34;10.05;;;9.18;;
22113;SDS011;11223;49.968;9.062;2023-05-08T06:32:00;9.93;;;8.73;;
22113;SDS011;11223;49.968;9.062;2023-05-08T06:34:25;8.50;;;7.70;;
22113;SDS011;11223;49.968;9.062;2023-05-08T06:36:51;9.47;;;8.80;;
22113;SDS011;11223;49.968;9.062;2023-05-08T06:39:16;9.47;;;8.67;;
22113;SDS011;11223;49.968;9.062;2023-05-08T06:41:42;10.70;;;8.67;;
22113;SDS011;11223;49.968;9.062;2023-05-08T06:44:10;9.00;;;8.18;;
22113;SDS011;11223;49.968;9.062;2023-05-08T06:46:37;10.02;;;9.23;;
22113;SDS011;11223;49.968;9.062;2023-05-08T06:49:03;9.87;;;9.00;;
22113;SDS011;11223;49.968;9.062;2023-05-08T06:51:28;8.57;;;7.87;;
22113;SDS011;11223;49.968;9.062;2023-05-08T06:53:55;9.23;;;8.43;;
22113;SDS011;11223;49.968;9.062;2023-05-08T06:56:20;8.30;;;7.60;;
22113;SDS011;11223;49.968;9.062;2023-05-08T06:58:46;8.20;;;7.50;;
22113;SDS011;11223;49.968;9.062;2023-05-08T07:01:12;8.37;;;7.70;;
22113;SDS011;11223;49.968;9.062;2023-05-08T07:03:38;7.13;;;6.53;;
22113;SDS011;11223;49.968;9.062;2023-05-08T07:06:05;7.70;;;7.10;;
22113;SDS011;11223;49.968;9.062;2023-05-08T07:08:33;8.88;;;8.18;;
22113;SDS011;11223;49.968;9.062;2023-05-08T07:10:58;9.13;;;8.33;;
22113;SDS011;11223;49.968;9.062;2023-05-08T07:13:24;8.37;;;7.57;;
22113;SDS011;11223;49.968;9.062;2023-05-08T07:15:50;10.10;;;9.30;;
22113;SDS011;11223;49.968;9.062;2023-05-08T07:18:16;9.07;;;8.27;;
22113;SDS011;11223;49.968;9.062;2023-05-08T07:20:42;9.00;;;8.30;;
22113;SDS011;11223;49.968;9.062;2023-05-08T07:23:07;7.90;;;7.30;;
22113;SDS011;11223;49.968;9.062;2023-05-08T07:25:33;8.27;;;7.57;;
22113;SDS011;11223;49.968;9.062;2023-05-08T07:27:59;10.07;;;9.20;;
22113;SDS011;11223;49.968;9.062;2023-05-08T07:30:25;9.53;;;8.73;;
22113;SDS011;11223;49.968;9.062;2023-05-08T07:32:50;9.27;;;8.57;;
22113;SDS011;11223;49.968;9.062;2023-05-08T07:35:16;9.20;;;8.40;;
22113;SDS011;11223;49.968;9.062;2023-05-08T07:37:42;9.00;;;8.20;;
22113;SDS011;11223;49.968;9.062;2023-05-08T07:40:07;9.03;;;8.17;;
22113;SDS011;11223;49.968;9.062;2023-05-08T07:42:40;8.70;;;7.90;;
22113;SDS011;11223;49.968;9.062;2023-05-08T07:45:07;10.55;;;9.75;;
22113;SDS011;11223;49.968;9.062;2023-05-08T07:47:33;9.63;;;8.93;;
22113;SDS011;11223;49.968;9.062;2023-05-08T07:49:59;9.17;;;8.37;;
22113;SDS011;11223;49.968;9.062;2023-05-08T07:52:25;9.70;;;8.80;;
22113;SDS011;11223;49.968;9.062;2023-05-08T07:54:50;10.77;;;9.70;;
22113;SDS011;11223;49.968;9.062;2023-05-08T07:57:16;10.47;;;9.47;;
22113;SDS011;11223;49.968;9.062;2023-05-08T07:59:42;9.27;;;8.37;;
22113;SDS011;11223;49.968;9.062;2023-05-08T08:02:07;9.83;;;9.03;;
22113;SDS011;11223;49.968;9.062;2023-05-08T08:04:33;9.67;;;8.87;;
22113;SDS011;11223;49.968;9.062;2023-05-08T08:06:58;10.57;;;9.50;;
22113;SDS011;11223;49.968;9.062;2023-05-08T08:09:24;9.50;;;8.70;;
22113;SDS011;11223;49.968;9.062;2023-05-08T08:11:50;10.13;;;9.33;;
22113;SDS011;11223;49.968;9.062;2023-05-08T08:14:15;10.63;;;9.70;;
22113;SDS011;11223;49.968;9.062;2023-05-08T08:16:41;10.07;;;9.17;;
22113;SDS011;11223;49.968;9.062;2023-05-08T08:19:06;10.50;;;9.67;;
22113;SDS011;11223;49.968;9.062;2023-05-08T08:21:32;10.97;;;10.07;;
22113;SDS011;11223;49.968;9.062;2023-05-08T08:23:58;10.13;;;9.23;;
22113;SDS011;11223;49.968;9.062;2023-05-08T08:26:24;10.18;;;9.18;;
22113;SDS011;11223;49.968;9.062;2023-05-08T08:28:50;10.43;;;9.45;;
22113;SDS011;11223;49.968;9.062;2023-05-08T08:31:16;9.67;;;8.87;;
22113;SDS011;11223;49.968;9.062;2023-05-08T08:33:43;11.60;;;10.30;;
22113;SDS011;11223;49.968;9.062;2023-05-08T08:36:13;10.13;;;9.23;;
22113;SDS011;11223;49.968;9.062;2023-05-08T08:38:39;10.40;;;9.50;;
22113;SDS011;11223;49.968;9.062;2023-05-08T08:41:04;8.70;;;8.00;;
22113;SDS011;11223;49.968;9.062;2023-05-08T08:43:30;11.70;;;10.60;;
22113;SDS011;11223;49.968;9.062;2023-05-08T08:45:56;9.70;;;8.90;;
22113;SDS011;11223;49.968;9.062;2023-05-08T08:48:23;10.00;;;9.10;;
22113;SDS011;11223;49.968;9.062;2023-05-08T08:50:52;10.75;;;9.20;;
22113;SDS011;11223;49.968;9.062;2023-05-08T08:53:24;10.52;;;9.48;;
22113;SDS011;11223;49.968;9.062;2023-05-08T08:55:51;9.52;;;8.75;;
22113;SDS011;11223;49.968;9.062;2023-05-08T08:58:25;12.68;;;9.85;;
22113;SDS011;11223;49.968;9.062;2023-05-08T09:01:00;9.65;;;8.77;;
22113;SDS011;11223;49.968;9.062;2023-05-08T09:03:28;7.95;;;7.25;;
22113;SDS011;11223;49.968;9.062;2023-05-08T09:06:00;7.68;;;6.95;;
22113;SDS011;11223;49.968;9.062;2023-05-08T09:08:26;8.50;;;7.80;;
22113;SDS011;11223;49.968;9.062;2023-05-08T09:10:53;8.02;;;7.30;;
22113;SDS011;11223;49.968;9.062;2023-05-08T09:13:20;9.35;;;8.57;;
22113;SDS011;11223;49.968;9.062;2023-05-08T09:15:46;8.85;;;8.13;;
22113;SDS011;11223;49.968;9.062;2023-05-08T09:18:13;8.25;;;7.55;;
22113;SDS011;11223;49.968;9.062;2023-05-08T09:20:39;9.57;;;8.77;;
22113;SDS011;11223;49.968;9.062;2023-05-08T09:23:05;8.82;;;8.02;;
22113;SDS011;11223;49.968;9.062;2023-05-08T09:25:44;8.23;;;7.45;;
22113;SDS011;11223;49.968;9.062;2023-05-08T09:28:15;8.57;;;7.72;;
22113;SDS011;11223;49.968;9.062;2023-05-08T09:30:51;8.77;;;7.97;;
22113;SDS011;11223;49.968;9.062;2023-05-08T09:33:21;7.60;;;6.55;;
22113;SDS011;11223;49.968;9.062;2023-05-08T09:35:48;7.85;;;7.15;;
22113;SDS011;11223;49.968;9.062;2023-05-08T09:41:12;7.32;;;6.72;;
22113;SDS011;11223;49.968;9.062;2023-05-08T09:43:39;8.00;;;7.30;;
22113;SDS011;11223;49.968;9.062;2023-05-08T09:48:46;8.65;;;7.85;;
22113;SDS011;11223;49.968;9.062;2023-05-08T09:51:13;8.27;;;7.47;;
22113;SDS011;11223;49.968;9.062;2023-05-08T09:53:38;8.50;;;7.80;;
22113;SDS011;11223;49.968;9.062;2023-05-08T09:56:04;8.57;;;7.77;;
22113;SDS011;11223;49.968;9.062;2023-05-08T09:58:40;7.20;;;6.60;;
22113;SDS011;11223;49.968;9.062;2023-05-08T10:01:07;7.90;;;7.22;;
22113;SDS011;11223;49.968;9.062;2023-05-08T10:03:51;8.52;;;7.78;;
22113;SDS011;11223;49.968;9.062;2023-05-08T10:06:16;8.20;;;7.57;;
22113;SDS011;11223;49.968;9.062;2023-05-08T10:08:42;7.47;;;6.70;;
22113;SDS011;11223;49.968;9.062;2023-05-08T10:11:14;7.40;;;6.70;;
22113;SDS011;11223;49.968;9.062;2023-05-08T10:13:42;7.70;;;7.05;;
22113;SDS011;11223;49.968;9.062;2023-05-08T10:16:14;9.30;;;8.50;;
22113;SDS011;11223;49.968;9.062;2023-05-08T10:18:45;7.95;;;7.25;;
22113;SDS011;11223;49.968;9.062;2023-05-08T10:21:13;8.70;;;7.90;;
22113;SDS011;11223;49.968;9.062;2023-05-08T10:23:43;9.02;;;8.30;;
22113;SDS011;11223;49.968;9.062;2023-05-08T10:26:24;8.00;;;7.20;;
22113;SDS011;11223;49.968;9.062;2023-05-08T10:28:56;9.02;;;8.35;;
22113;SDS011;11223;49.968;9.062;2023-05-08T10:31:30;8.13;;;7.45;;
22113;SDS011;11223;49.968;9.062;2023-05-08T10:33:59;9.50;;;8.60;;
22113;SDS011;11223;49.968;9.062;2023-05-08T10:36:27;8.52;;;7.75;;
22113;SDS011;11223;49.968;9.062;2023-05-08T10:38:54;8.15;;;7.55;;
22113;SDS011;11223;49.968;9.062;2023-05-08T10:41:22;8.20;;;7.50;;
22113;SDS011;11223;49.968;9.062;2023-05-08T10:43:48;8.25;;;7.55;;
22113;SDS011;11223;49.968;9.062;2023-05-08T10:57:22;8.25;;;7.45;;
22113;SDS011;11223;49.968;9.062;2023-05-08T10:59:48;8.33;;;7.63;;
22113;SDS011;11223;49.968;9.062;2023-05-08T11:02:13;8.70;;;7.83;;
22113;SDS011;11223;49.968;9.062;2023-05-08T11:04:40;9.55;;;8.73;;
22113;SDS011;11223;49.968;9.062;2023-05-08T11:07:06;7.73;;;7.03;;
22113;SDS011;11223;49.968;9.062;2023-05-08T11:12:07;7.70;;;7.10;;
22113;SDS011;11223;49.968;9.062;2023-05-08T11:14:59;8.80;;;8.10;;
22113;SDS011;11223;49.968;9.062;2023-05-08T11:17:27;9.73;;;8.77;;
22113;SDS011;11223;49.968;9.062;2023-05-08T11:19:57;8.73;;;7.93;;
22113;SDS011;11223;49.968;9.062;2023-05-08T11:22:25;8.65;;;7.95;;
22113;SDS011;11223;49.968;9.062;2023-05-08T11:24:57;9.27;;;8.57;;
22113;SDS011;11223;49.968;9.062;2023-05-08T11:27:31;8.15;;;7.55;;
22113;SDS011;11223;49.968;9.062;2023-05-08T11:35:53;8.07;;;7.35;;
22113;SDS011;11223;49.968;9.062;2023-05-08T11:40:57;7.20;;;6.60;;
22113;SDS011;11223;49.968;9.062;2023-05-08T11:43:25;7.85;;;7.13;;
22113;SDS011;11223;49.968;9.062;2023-05-08T11:45:59;7.50;;;6.80;;
22113;SDS011;11223;49.968;9.062;2023-05-08T11:48:26;7.65;;;7.05;;
22113;SDS011;11223;49.968;9.062;2023-05-08T11:50:52;8.30;;;7.60;;
22113;SDS011;11223;49.968;9.062;2023-05-08T11:53:18;7.77;;;7.17;;
22113;SDS011;11223;49.968;9.062;2023-05-08T11:55:47;6.53;;;5.93;;
22113;SDS011;11223;49.968;9.062;2023-05-08T11:58:14;7.78;;;7.07;;
22113;SDS011;11223;49.968;9.062;2023-05-08T12:00:40;6.68;;;5.90;;
22113;SDS011;11223;49.968;9.062;2023-05-08T12:03:10;7.07;;;6.45;;
22113;SDS011;11223;49.968;9.062;2023-05-08T12:05:37;7.10;;;6.50;;
22113;SDS011;11223;49.968;9.062;2023-05-08T12:08:04;8.07;;;7.37;;
22113;SDS011;11223;49.968;9.062;2023-05-08T12:10:30;7.28;;;6.68;;
22113;SDS011;11223;49.968;9.062;2023-05-08T12:12:56;7.70;;;7.00;;
22113;SDS011;11223;49.968;9.062;2023-05-08T12:15:22;6.17;;;5.57;;
22113;SDS011;11223;49.968;9.062;2023-05-08T12:17:47;5.20;;;4.80;;
22113;SDS011;11223;49.968;9.062;2023-05-08T12:20:14;6.77;;;6.17;;
22113;SDS011;11223;49.968;9.062;2023-05-08T12:22:48;6.10;;;5.60;;
22113;SDS011;11223;49.968;9.062;2023-05-08T12:25:16;6.75;;;6.18;;
22113;SDS011;11223;49.968;9.062;2023-05-08T12:27:42;6.72;;;6.20;;
22113;SDS011;11223;49.968;9.062;2023-05-08T12:30:12;6.45;;;5.50;;
22113;SDS011;11223;49.968;9.062;2023-05-08T12:32:40;6.22;;;5.53;;
22113;SDS011;11223;49.968;9.062;2023-05-08T12:35:06;5.65;;;5.25;;
22113;SDS011;11223;49.968;9.062;2023-05-08T12:37:33;5.93;;;5.43;;
22113;SDS011;11223;49.968;9.062;2023-05-08T12:39:59;5.77;;;5.27;;
22113;SDS011;11223;49.968;9.062;2023-05-08T12:45:25;6.63;;;6.03;;
22113;SDS011;11223;49.968;9.062;2023-05-08T12:47:53;6.68;;;6.07;;
22113;SDS011;11223;49.968;9.062;2023-05-08T12:50:22;7.57;;;6.97;;
22113;SDS011;11223;49.968;9.062;2023-05-08T12:52:51;6.32;;;5.82;;
22113;SDS011;11223;49.968;9.062;2023-05-08T12:57:49;6.78;;;6.07;;
22113;SDS011;11223;49.968;9.062;2023-05-08T13:00:23;6.80;;;6.30;;
22113;SDS011;11223;49.968;9.062;2023-05-08T13:02:55;6.93;;;6.23;;
22113;SDS011;11223;49.968;9.062;2023-05-08T13:05:21;6.13;;;5.63;;
22113;SDS011;11223;49.968;9.062;2023-05-08T13:07:48;9.23;;;6.78;;
22113;SDS011;11223;49.968;9.062;2023-05-08T13:10:14;6.00;;;5.50;;
22113;SDS011;11223;49.968;9.062;2023-05-08T13:12:40;5.40;;;4.93;;
22113;SDS011;11223;49.968;9.062;2023-05-08T13:15:06;5.60;;;5.17;;
22113;SDS011;11223;49.968;9.062;2023-05-08T13:17:32;7.93;;;7.20;;
22113;SDS011;11223;49.968;9.062;2023-05-08T13:19:57;6.40;;;5.90;;
22113;SDS011;11223;49.968;9.062;2023-05-08T13:22:23;6.27;;;5.73;;
22113;SDS011;11223;49.968;9.062;2023-05-08T13:24:50;6.35;;;5.85;;
22113;SDS011;11223;49.968;9.062;2023-05-08T13:27:17;6.05;;;5.55;;
22113;SDS011;11223;49.968;9.062;2023-05-08T13:29:43;6.17;;;5.67;;
22113;SDS011;11223;49.968;9.062;2023-05-08T13:32:08;7.27;;;6.67;;
22113;SDS011;11223;49.968;9.062;2023-05-08T13:34:34;6.47;;;5.87;;
22113;SDS011;11223;49.968;9.062;2023-05-08T13:36:59;6.80;;;6.20;;
22113;SDS011;11223;49.968;9.062;2023-05-08T13:39:25;7.07;;;6.37;;
22113;SDS011;11223;49.968;9.062;2023-05-08T13:41:51;8.60;;;7.80;;
22113;SDS011;11223;49.968;9.062;2023-05-08T13:44:16;7.53;;;6.83;;
22113;SDS011;11223;49.968;9.062;2023-05-08T13:46:42;8.27;;;7.47;;
22113;SDS011;11223;49.968;9.062;2023-05-08T13:49:07;9.33;;;8.60;;
22113;SDS011;11223;49.968;9.062;2023-05-08T13:51:33;7.70;;;7.00;;
22113;SDS011;11223;49.968;9.062;2023-05-08T13:53:58;7.83;;;7.13;;
22113;SDS011;11223;49.968;9.062;2023-05-08T13:56:25;8.05;;;7.45;;
22113;SDS011;11223;49.968;9.062;2023-05-08T13:58:50;8.37;;;7.67;;
22113;SDS011;11223;49.968;9.062;2023-05-08T14:01:16;7.37;;;6.67;;
22113;SDS011;11223;49.968;9.062;2023-05-08T14:03:42;8.60;;;7.80;;
22113;SDS011;11223;49.968;9.062;2023-05-08T14:06:07;7.10;;;6.40;;
22113;SDS011;11223;49.968;9.062;2023-05-08T14:08:33;8.47;;;7.70;;
22113;SDS011;11223;49.968;9.062;2023-05-08T14:10:58;9.00;;;7.83;;
22113;SDS011;11223;49.968;9.062;2023-05-08T14:13:24;7.20;;;6.63;;
22113;SDS011;11223;49.968;9.062;2023-05-08T14:15:50;6.77;;;6.13;;
22113;SDS011;11223;49.968;9.062;2023-05-08T14:18:15;7.30;;;6.70;;
22113;SDS011;11223;49.968;9.062;2023-05-08T14:20:41;7.20;;;6.60;;
22113;SDS011;11223;49.968;9.062;2023-05-08T14:23:06;9.03;;;8.20;;
22113;SDS011;11223;49.968;9.062;2023-05-08T14:25:32;9.53;;;8.67;;
22113;SDS011;11223;49.968;9.062;2023-05-08T14:27:58;8.20;;;7.50;;
22113;SDS011;11223;49.968;9.062;2023-05-08T14:30:24;9.00;;;8.20;;
22113;SDS011;11223;49.968;9.062;2023-05-08T14:32:49;8.03;;;7.33;;
22113;SDS011;11223;49.968;9.062;2023-05-08T14:35:15;8.00;;;7.30;;
22113;SDS011;11223;49.968;9.062;2023-05-08T14:37:40;12.00;;;7.40;;
22113;SDS011;11223;49.968;9.062;2023-05-08T14:40:06;7.60;;;6.93;;
22113;SDS011;11223;49.968;9.062;2023-05-08T14:42:32;7.97;;;7.10;;
22113;SDS011;11223;49.968;9.062;2023-05-08T14:44:58;8.07;;;7.43;;
22113;SDS011;11223;49.968;9.062;2023-05-08T14:47:24;7.80;;;7.30;;
22113;SDS011;11223;49.968;9.062;2023-05-08T14:49:49;8.00;;;7.30;;
22113;SDS011;11223;49.968;9.062;2023-05-08T14:52:17;8.77;;;7.95;;
22113;SDS011;11223;49.968;9.062;2023-05-08T14:54:42;8.87;;;8.03;;
22113;SDS011;11223;49.968;9.062;2023-05-08T14:57:08;8.93;;;8.13;;
22113;SDS011;11223;49.968;9.062;2023-05-08T14:59:34;8.27;;;7.60;;
22113;SDS011;11223;49.968;9.062;2023-05-08T15:01:59;8.57;;;7.87;;
22113;SDS011;11223;49.968;9.062;2023-05-08T15:04:25;8.10;;;7.30;;
22113;SDS011;11223;49.968;9.062;2023-05-08T15:06:51;8.30;;;7.60;;
22113;SDS011;11223;49.968;9.062;2023-05-08T15:09:16;7.97;;;7.27;;
22113;SDS011;11223;49.968;9.062;2023-05-08T15:11:42;8.13;;;7.43;;
22113;SDS011;11223;49.968;9.062;2023-05-08T15:14:08;8.10;;;7.40;;
22113;SDS011;11223;49.968;9.062;2023-05-08T15:16:33;8.17;;;7.47;;
22113;SDS011;11223;49.968;9.062;2023-05-08T15:18:59;7.80;;;7.00;;
22113;SDS011;11223;49.968;9.062;2023-05-08T15:21:25;8.40;;;7.63;;
22113;SDS011;11223;49.968;9.062;2023-05-08T15:23:51;7.97;;;7.28;;
22113;SDS011;11223;49.968;9.062;2023-05-08T15:26:18;8.48;;;7.80;;
22113;SDS011;11223;49.968;9.062;2023-05-08T15:28:43;8.57;;;7.77;;
22113;SDS011;11223;49.968;9.062;2023-05-08T15:31:09;8.10;;;7.33;;
22113;SDS011;11223;49.968;9.062;2023-05-08T15:33:34;9.20;;;8.40;;
22113;SDS011;11223;49.968;9.062;2023-05-08T15:36:00;9.83;;;8.93;;
22113;SDS011;11223;49.968;9.062;2023-05-08T15:38:26;8.43;;;7.60;;
22113;SDS011;11223;49.968;9.062;2023-05-08T15:40:51;8.70;;;7.90;;